createdAt,value
2018-04-01T00:02:06.639Z,99749.05
2018-04-01T00:04:35.118Z,99744.16
2018-04-01T00:07:03.003Z,99729.19
2018-04-01T00:09:30.898Z,99726.73
2018-04-01T00:11:58.991Z,99718.44
2018-04-01T00:14:27.067Z,99715.18
2018-04-01T00:16:54.975Z,99705.91
2018-04-01T00:19:22.990Z,99702.41
2018-04-01T00:21:50.908Z,99703.48
2018-04-01T00:24:18.791Z,99700.08
2018-04-01T00:26:46.670Z,99700.03
2018-04-01T00:29:14.548Z,99691.61
2018-04-01T00:31:42.766Z,99687.45
2018-04-01T00:34:10.776Z,99675.70
2018-04-01T00:36:38.651Z,99661.09
2018-04-01T00:39:07.778Z,99651.13
2018-04-01T00:41:35.661Z,99644.00
2018-04-01T00:44:03.741Z,99641.92
2018-04-01T00:46:32.523Z,99643.16
2018-04-01T00:49:00.575Z,99638.97
2018-04-01T00:51:29.144Z,99638.25
2018-04-01T00:53:57.307Z,99641.66
2018-04-01T00:56:25.184Z,99627.92
2018-04-01T00:58:53.166Z,99618.95
2018-04-01T01:01:21.043Z,99605.17
2018-04-01T01:03:48.955Z,99596.81
2018-04-01T01:06:16.909Z,99587.16
2018-04-01T01:08:44.790Z,99589.24
2018-04-01T01:11:12.670Z,99595.94
2018-04-01T01:13:40.578Z,99610.91
2018-04-01T01:16:08.512Z,99617.86
2018-04-01T01:18:36.469Z,99615.78
2018-04-01T01:21:04.568Z,99619.53
2018-04-01T01:23:32.687Z,99625.72
2018-04-01T01:26:00.572Z,99626.55
2018-04-01T01:28:28.471Z,99642.14
2018-04-01T01:30:56.793Z,99645.77
2018-04-01T01:33:24.801Z,99649.44
2018-04-01T01:35:52.765Z,99636.84
2018-04-01T01:38:20.647Z,99623.59
2018-04-01T01:40:48.525Z,99620.37
2018-04-01T01:43:16.461Z,99610.59
2018-04-01T01:45:45.017Z,99603.99
2018-04-01T01:48:13.160Z,99594.97
2018-04-01T01:50:41.563Z,99596.78
2018-04-01T01:53:09.715Z,99588.55
2018-04-01T01:55:37.831Z,99586.11
2018-04-01T01:58:05.715Z,99579.80
2018-04-01T02:00:33.610Z,99581.80
2018-04-01T02:03:01.705Z,99583.88
2018-04-01T02:05:30.151Z,99578.03
2018-04-01T02:07:58.191Z,99570.25
2018-04-01T02:10:26.040Z,99573.17
2018-04-01T02:12:54.011Z,99564.40
2018-04-01T02:15:21.904Z,99562.25
2018-04-01T02:17:50.855Z,99566.33
2018-04-01T02:20:19.027Z,99562.88
2018-04-01T02:22:47.066Z,99562.73
2018-04-01T02:25:15.930Z,99550.14
2018-04-01T02:27:44.503Z,99544.27
2018-04-01T02:30:12.577Z,99537.57
2018-04-01T02:32:40.849Z,99537.45
2018-04-01T02:35:08.733Z,99541.09
2018-04-01T02:37:36.613Z,99541.84
2018-04-01T02:40:04.748Z,99532.11
2018-04-01T02:42:32.646Z,99529.27
2018-04-01T02:45:01.342Z,99518.05
2018-04-01T02:47:29.378Z,99517.62
2018-04-01T02:49:58.205Z,99510.08
2018-04-01T02:52:26.108Z,99504.28
2018-04-01T02:54:54.820Z,99495.55
2018-04-01T02:57:23.292Z,99495.63
2018-04-01T02:59:51.791Z,99492.32
2018-04-01T03:02:19.856Z,99475.22
2018-04-01T03:04:47.751Z,99466.01
2018-04-01T03:07:16.114Z,99461.46
2018-04-01T03:09:44.442Z,99462.33
2018-04-01T03:12:12.984Z,99456.11
2018-04-01T03:14:40.919Z,99451.56
2018-04-01T03:17:08.929Z,99450.02
2018-04-01T03:19:37.270Z,99445.39
2018-04-01T03:22:05.625Z,99446.64
2018-04-01T03:24:33.893Z,99433.25
2018-04-01T03:27:02.620Z,99435.77
2018-04-01T03:29:30.936Z,99427.05
2018-04-01T03:31:58.950Z,99417.87
2018-04-01T03:34:27.710Z,99410.38
2018-04-01T03:36:56.058Z,99404.20
2018-04-01T03:39:24.177Z,99405.50
2018-04-01T03:41:52.796Z,99404.33
2018-04-01T03:44:20.907Z,99397.25
2018-04-01T03:46:49.148Z,99394.35
2018-04-01T03:49:17.292Z,99386.72
2018-04-01T03:51:46.364Z,99387.97
2018-04-01T03:54:14.782Z,99387.48
2018-04-01T03:56:43.313Z,99389.99
2018-04-01T03:59:11.584Z,99385.35
2018-04-01T04:01:39.770Z,99380.30
2018-04-01T04:04:08.568Z,99386.63
2018-04-01T04:06:36.608Z,99387.97
2018-04-01T04:09:04.668Z,99374.15
2018-04-01T04:11:32.694Z,99376.20
2018-04-01T04:14:01.212Z,99373.68
2018-04-01T04:16:29.211Z,99375.77
2018-04-01T04:18:58.016Z,99367.81
2018-04-01T04:21:25.901Z,99367.45
2018-04-01T04:23:53.792Z,99363.77
2018-04-01T04:26:22.558Z,99356.30
2018-04-01T04:28:50.510Z,99355.41
2018-04-01T04:31:18.399Z,99344.45
2018-04-01T04:33:46.427Z,99335.23
2018-04-01T04:36:14.417Z,99338.59
2018-04-01T04:38:42.295Z,99338.64
2018-04-01T04:41:10.327Z,99341.15
2018-04-01T04:43:38.295Z,99336.97
2018-04-01T04:46:06.317Z,99329.08
2018-04-01T04:48:34.311Z,99329.52
2018-04-01T04:51:02.228Z,99327.95
2018-04-01T04:53:30.962Z,99322.93
2018-04-01T04:55:58.951Z,99315.77
2018-04-01T04:58:26.898Z,99320.31
2018-04-01T05:00:55.297Z,99317.71
2018-04-01T05:03:23.239Z,99311.54
2018-04-01T05:05:51.121Z,99313.18
2018-04-01T05:08:19.071Z,99309.72
2018-04-01T05:10:47.325Z,99309.25
2018-04-01T05:13:15.303Z,99319.28
2018-04-01T05:15:43.188Z,99317.97
2018-04-01T05:18:11.075Z,99311.66
2018-04-01T05:20:38.967Z,99309.86
2018-04-01T05:23:07.231Z,99300.08
2018-04-01T05:25:35.192Z,99305.38
2018-04-01T05:28:03.164Z,99302.52
2018-04-01T05:30:31.065Z,99303.41
2018-04-01T05:32:59.348Z,99301.77
2018-04-01T05:35:27.281Z,99298.06
2018-04-01T05:37:55.165Z,99291.80
2018-04-01T05:40:23.097Z,99290.47
2018-04-01T05:42:51.744Z,99288.25
2018-04-01T05:45:20.089Z,99297.08
2018-04-01T05:47:48.128Z,99293.72
2018-04-01T05:50:16.015Z,99290.36
2018-04-01T05:52:44.737Z,99296.67
2018-04-01T05:55:12.773Z,99304.97
2018-04-01T05:57:40.804Z,99307.44
2018-04-01T06:00:08.912Z,99309.89
2018-04-01T06:02:37.227Z,99305.58
2018-04-01T06:05:05.294Z,99299.59
2018-04-01T06:07:33.565Z,99296.28
2018-04-01T06:10:01.460Z,99294.63
2018-04-01T06:12:29.396Z,99299.59
2018-04-01T06:14:57.313Z,99294.05
2018-04-01T06:17:25.229Z,99294.31
2018-04-01T06:19:53.120Z,99287.95
2018-04-01T06:22:21.052Z,99287.02
2018-04-01T06:24:50.493Z,99283.31
2018-04-01T06:27:18.666Z,99284.59
2018-04-01T06:29:47.076Z,99285.03
2018-04-01T06:32:14.962Z,99277.02
2018-04-01T06:34:43.129Z,99275.56
2018-04-01T06:37:11.365Z,99271.19
2018-04-01T06:39:39.863Z,99278.69
2018-04-01T06:42:09.299Z,99273.98
2018-04-01T06:44:37.910Z,99276.08
2018-04-01T06:47:07.226Z,99279.45
2018-04-01T06:49:35.121Z,99272.42
2018-04-01T06:52:03.829Z,99274.47
2018-04-01T06:54:32.660Z,99272.69
2018-04-01T06:57:00.973Z,99273.52
2018-04-01T06:59:29.024Z,99266.77
2018-04-01T07:01:57.467Z,99265.83
2018-04-01T07:04:26.604Z,99264.89
2018-04-01T07:06:55.473Z,99261.86
2018-04-01T07:09:23.980Z,99259.81
2018-04-01T07:11:52.712Z,99264.81
2018-04-01T07:14:21.333Z,99261.80
2018-04-01T07:16:49.571Z,99263.41
2018-04-01T07:19:18.113Z,99258.38
2018-04-01T07:21:46.328Z,99255.41
2018-04-01T07:24:14.274Z,99254.84
2018-04-01T07:26:42.854Z,99258.27
2018-04-01T07:29:11.231Z,99251.22
2018-04-01T07:31:39.628Z,99256.08
2018-04-01T07:34:07.650Z,99248.06
2018-04-01T07:36:35.547Z,99251.34
2018-04-01T07:39:04.152Z,99251.25
2018-04-01T07:41:32.046Z,99253.69
2018-04-01T07:44:00.260Z,99252.08
2018-04-01T07:46:28.232Z,99254.59
2018-04-01T07:48:56.301Z,99259.65
2018-04-01T07:51:24.276Z,99250.50
2018-04-01T07:53:52.169Z,99252.92
2018-04-01T07:56:20.545Z,99247.98
2018-04-01T07:58:48.874Z,99241.58
2018-04-01T08:01:17.122Z,99242.25
2018-04-01T08:03:45.012Z,99245.06
2018-04-01T08:06:13.100Z,99243.89
2018-04-01T08:08:41.897Z,99241.34
2018-04-01T08:11:09.924Z,99244.73
2018-04-01T08:13:39.001Z,99237.10
2018-04-01T08:16:07.305Z,99243.36
2018-04-01T08:18:36.258Z,99239.35
2018-04-01T08:21:04.735Z,99243.19
2018-04-01T08:23:33.428Z,99237.95
2018-04-01T08:26:01.616Z,99240.77
2018-04-01T08:28:29.818Z,99243.39
2018-04-01T08:30:58.524Z,99245.38
2018-04-01T08:33:28.809Z,99250.36
2018-04-01T08:35:56.706Z,99239.94
2018-04-01T08:38:24.870Z,99239.13
2018-04-01T08:40:52.758Z,99231.58
2018-04-01T08:43:20.644Z,99232.30
2018-04-01T08:45:49.217Z,99235.09
2018-04-01T08:48:17.572Z,99236.69
2018-04-01T08:50:45.895Z,99227.48
2018-04-01T08:53:14.761Z,99229.11
2018-04-01T08:55:42.782Z,99222.70
2018-04-01T08:58:10.884Z,99223.44
2018-04-01T09:00:38.780Z,99222.44
2018-04-01T09:03:06.676Z,99216.03
2018-04-01T09:05:34.797Z,99215.97
2018-04-01T09:08:03.763Z,99215.41
2018-04-01T09:10:33.398Z,99213.97
2018-04-01T09:13:01.753Z,99212.62
2018-04-01T09:15:29.873Z,99208.52
2018-04-01T09:17:58.450Z,99207.36
2018-04-01T09:20:26.525Z,99204.84
2018-04-01T09:22:54.482Z,99205.91
2018-04-01T09:25:22.398Z,99205.23
2018-04-01T09:27:50.308Z,99203.64
2018-04-01T09:30:18.613Z,99204.09
2018-04-01T09:32:47.405Z,99202.89
2018-04-01T09:35:16.080Z,99201.28
2018-04-01T09:37:45.376Z,99198.80
2018-04-01T09:40:14.264Z,99187.72
2018-04-01T09:42:42.481Z,99193.98
2018-04-01T09:45:10.988Z,99191.13
2018-04-01T09:47:38.985Z,99196.44
2018-04-01T09:50:06.906Z,99194.23
2018-04-01T09:52:34.798Z,99201.48
2018-04-01T09:55:03.046Z,99201.95
2018-04-01T09:57:30.938Z,99205.95
2018-04-01T09:59:58.837Z,99203.77
2018-04-01T10:02:27.394Z,99204.09
2018-04-01T10:05:19.607Z,99200.00
2018-04-01T10:07:48.992Z,99192.66
2018-04-01T10:10:17.933Z,99199.65
2018-04-01T10:12:46.357Z,99197.95
2018-04-01T10:15:14.778Z,99202.61
2018-04-01T10:17:43.443Z,99202.86
2018-04-01T10:20:12.076Z,99204.03
2018-04-01T10:22:41.395Z,99200.57
2018-04-01T10:25:10.016Z,99193.39
2018-04-01T10:27:38.444Z,99194.20
2018-04-01T10:30:06.981Z,99195.63
2018-04-01T10:32:35.478Z,99199.25
2018-04-01T10:35:04.785Z,99189.08
2018-04-01T10:37:33.309Z,99191.91
2018-04-01T10:40:01.728Z,99189.02
2018-04-01T10:42:30.370Z,99188.58
2018-04-01T10:44:59.014Z,99179.73
2018-04-01T10:47:27.443Z,99178.47
2018-04-01T10:49:55.882Z,99183.22
2018-04-01T10:52:24.557Z,99185.23
2018-04-01T10:54:52.449Z,99186.43
2018-04-01T10:57:21.039Z,99183.13
2018-04-01T10:59:50.164Z,99176.11
2018-04-01T11:02:18.343Z,99179.00
2018-04-01T11:04:46.233Z,99176.77
2018-04-01T11:07:14.818Z,99175.23
2018-04-01T11:09:42.915Z,99168.36
2018-04-01T11:12:11.359Z,99164.59
2018-04-01T11:14:39.519Z,99164.34
2018-04-01T11:17:07.566Z,99161.78
2018-04-01T11:19:36.023Z,99164.65
2018-04-01T11:22:04.165Z,99162.00
2018-04-01T11:24:33.286Z,99156.56
2018-04-01T11:27:02.115Z,99157.66
2018-04-01T11:29:30.021Z,99158.06
2018-04-01T11:31:57.914Z,99161.81
2018-04-01T11:34:25.802Z,99162.66
2018-04-01T11:36:53.698Z,99159.73
2018-04-01T11:39:21.674Z,99149.97
2018-04-01T11:41:49.578Z,99152.23
2018-04-01T11:44:17.467Z,99146.50
2018-04-01T11:46:45.356Z,99149.96
2018-04-01T11:49:13.243Z,99149.77
2018-04-01T11:51:41.127Z,99144.50
2018-04-01T11:54:09.009Z,99138.11
2018-04-01T11:56:36.906Z,99148.53
2018-04-01T11:59:04.818Z,99154.57
2018-04-01T12:01:32.791Z,99149.66
2018-04-01T12:04:00.692Z,99151.59
2018-04-01T12:06:28.655Z,99155.09
2018-04-01T12:08:56.572Z,99157.33
2018-04-01T12:11:24.470Z,99158.14
2018-04-01T12:13:52.381Z,99163.75
2018-04-01T12:16:20.290Z,99159.28
2018-04-01T12:18:48.204Z,99152.35
2018-04-01T12:21:16.106Z,99154.91
2018-04-01T12:23:43.991Z,99157.02
2018-04-01T12:26:12.062Z,99156.30
2018-04-01T12:28:40.030Z,99157.05
2018-04-01T12:31:08.255Z,99153.17
2018-04-01T12:33:36.156Z,99148.33
2018-04-01T12:36:04.247Z,99142.73
2018-04-01T12:38:32.126Z,99133.42
2018-04-01T12:41:00.072Z,99133.36
2018-04-01T12:43:27.962Z,99135.31
2018-04-01T12:45:55.853Z,99140.06
2018-04-01T12:48:23.741Z,99136.69
2018-04-01T12:50:51.640Z,99138.80
2018-04-01T12:53:19.535Z,99140.06
2018-04-01T12:55:47.426Z,99135.94
2018-04-01T12:58:15.349Z,99140.47
2018-04-01T13:00:43.230Z,99137.13
2018-04-01T13:03:11.117Z,99133.58
2018-04-01T13:05:39.010Z,99129.73
2018-04-01T13:08:06.888Z,99124.53
2018-04-01T13:10:34.778Z,99126.11
2018-04-01T13:13:02.665Z,99127.84
2018-04-01T13:15:30.564Z,99122.93
2018-04-01T13:17:58.463Z,99122.49
2018-04-01T13:20:26.356Z,99119.59
2018-04-01T13:22:54.257Z,99113.33
2018-04-01T13:25:22.147Z,99119.44
2018-04-01T13:27:50.024Z,99111.16
2018-04-01T13:30:17.903Z,99115.66
2018-04-01T13:32:45.878Z,99119.75
2018-04-01T13:35:13.828Z,99118.45
2018-04-01T13:37:41.711Z,99112.06
2018-04-01T13:40:09.695Z,99112.09
2018-04-01T13:42:37.604Z,99109.41
2018-04-01T13:45:05.497Z,99110.27
2018-04-01T13:47:33.379Z,99110.09
2018-04-01T13:50:01.268Z,99116.73
2018-04-01T13:52:29.204Z,99117.59
2018-04-01T13:54:57.146Z,99115.95
2018-04-01T13:57:25.039Z,99119.33
2018-04-01T13:59:52.923Z,99122.38
2018-04-01T14:02:20.820Z,99130.28
2018-04-01T14:04:48.744Z,99128.34
2018-04-01T14:07:16.626Z,99129.56
2018-04-01T14:09:44.705Z,99128.30
2018-04-01T14:12:12.592Z,99128.12
2018-04-01T14:14:40.509Z,99134.55
2018-04-01T14:17:11.684Z,99130.39
2018-04-01T14:19:39.590Z,99127.59
2018-04-01T14:22:07.560Z,99124.77
2018-04-01T14:24:35.444Z,99129.62
2018-04-01T14:27:03.339Z,99129.77
2018-04-01T14:29:31.231Z,99145.30
2018-04-01T14:31:59.106Z,99143.12
2018-04-01T14:34:26.988Z,99149.09
2018-04-01T14:36:54.883Z,99146.93
2018-04-01T14:39:22.761Z,99145.83
2018-04-01T14:41:50.645Z,99143.81
2018-04-01T14:44:18.620Z,99140.16
2018-04-01T14:46:46.545Z,99137.39
2018-04-01T14:49:14.457Z,99141.64
2018-04-01T14:51:42.381Z,99148.25
2018-04-01T14:54:10.353Z,99149.01
2018-04-01T14:56:38.297Z,99149.80
2018-04-01T14:59:06.202Z,99154.64
2018-04-01T15:01:34.092Z,99148.31
2018-04-01T15:04:02.042Z,99145.02
2018-04-01T15:06:29.926Z,99147.09
2018-04-01T15:08:57.827Z,99152.03
2018-04-01T15:11:25.722Z,99152.69
2018-04-01T15:13:54.789Z,99150.77
2018-04-01T15:16:22.684Z,99144.53
2018-04-01T15:18:50.560Z,99144.56
2018-04-01T15:21:18.449Z,99143.84
2018-04-01T15:23:46.330Z,99141.80
2018-04-01T15:26:14.216Z,99140.54
2018-04-01T15:28:42.642Z,99137.77
2018-04-01T15:31:11.415Z,99138.33
2018-04-01T15:33:39.292Z,99140.91
2018-04-01T15:36:07.177Z,99148.37
2018-04-01T15:38:35.057Z,99142.33
2018-04-01T15:41:02.933Z,99143.44
2018-04-01T15:43:31.396Z,99142.49
2018-04-01T15:45:59.336Z,99144.98
2018-04-01T15:48:27.226Z,99142.72
2018-04-01T15:50:55.149Z,99141.11
2018-04-01T15:53:23.033Z,99140.20
2018-04-01T15:55:50.930Z,99142.62
2018-04-01T15:58:18.831Z,99140.41
2018-04-01T16:00:46.723Z,99144.82
2018-04-01T16:03:14.610Z,99142.68
2018-04-01T16:05:42.501Z,99138.91
2018-04-01T16:08:10.476Z,99142.68
2018-04-01T16:10:38.552Z,99141.14
2018-04-01T16:13:07.157Z,99141.52
2018-04-01T16:15:35.203Z,99135.16
2018-04-01T16:18:03.174Z,99136.86
2018-04-01T16:20:31.055Z,99138.69
2018-04-01T16:22:58.935Z,99141.36
2018-04-01T16:25:26.838Z,99143.88
2018-04-01T16:27:54.769Z,99150.20
2018-04-01T16:30:22.659Z,99154.39
2018-04-01T16:32:50.542Z,99156.47
2018-04-01T16:35:18.423Z,99157.34
2018-04-01T16:37:46.302Z,99153.70
2018-04-01T16:40:14.190Z,99161.50
2018-04-01T16:42:42.080Z,99164.55
2018-04-01T16:45:09.960Z,99164.29
2018-04-01T16:47:37.898Z,99157.18
2018-04-01T16:50:05.809Z,99155.55
2018-04-01T16:52:33.838Z,99163.13
2018-04-01T16:55:01.742Z,99167.02
2018-04-01T16:57:29.634Z,99167.62
2018-04-01T16:59:57.544Z,99167.67
2018-04-01T17:02:25.431Z,99166.92
2018-04-01T17:04:53.325Z,99166.55
2018-04-01T17:07:21.271Z,99175.03
2018-04-01T17:09:49.158Z,99165.00
2018-04-01T17:12:17.056Z,99164.30
2018-04-01T17:14:45.752Z,99169.02
2018-04-01T17:17:13.641Z,99173.70
2018-04-01T17:19:41.533Z,99170.42
2018-04-01T17:22:09.442Z,99171.36
2018-04-01T17:24:37.632Z,99175.17
2018-04-01T17:27:05.528Z,99178.27
2018-04-01T17:29:33.412Z,99180.84
2018-04-01T17:32:01.288Z,99178.33
2018-04-01T17:34:29.185Z,99179.27
2018-04-01T17:36:57.079Z,99185.71
2018-04-01T17:39:25.003Z,99182.97
2018-04-01T17:41:52.891Z,99188.43
2018-04-01T17:44:20.793Z,99187.79
2018-04-01T17:46:48.686Z,99192.53
2018-04-01T17:49:16.653Z,99200.63
2018-04-01T17:51:44.540Z,99206.63
2018-04-01T17:54:12.446Z,99208.81
2018-04-01T17:56:41.132Z,99217.19
2018-04-01T17:59:09.029Z,99209.66
2018-04-01T18:01:36.926Z,99220.39
2018-04-01T18:04:04.932Z,99215.02
2018-04-01T18:06:32.894Z,99225.54
2018-04-01T18:09:00.786Z,99224.80
2018-04-01T18:11:28.684Z,99230.68
2018-04-01T18:13:56.581Z,99233.55
2018-04-01T18:16:25.311Z,99234.34
2018-04-01T18:18:53.199Z,99245.27
2018-04-01T18:21:21.171Z,99246.56
2018-04-01T18:23:49.032Z,99253.37
2018-04-01T18:26:16.915Z,99250.45
2018-04-01T18:28:44.806Z,99247.91
2018-04-01T18:31:12.690Z,99250.86
2018-04-01T18:33:40.681Z,99258.92
2018-04-01T18:36:08.582Z,99267.78
2018-04-01T18:38:36.462Z,99272.31
2018-04-01T18:41:04.353Z,99267.72
2018-04-01T18:43:32.276Z,99273.48
2018-04-01T18:46:00.164Z,99260.42
2018-04-01T18:48:28.088Z,99261.35
2018-04-01T18:50:56.116Z,99270.20
2018-04-01T18:53:23.976Z,99267.97
2018-04-01T18:55:51.858Z,99268.74
2018-04-01T18:58:19.776Z,99270.22
2018-04-01T19:00:47.658Z,99269.45
2018-04-01T19:03:15.560Z,99274.00
2018-04-01T19:05:43.450Z,99274.00
2018-04-01T19:08:11.421Z,99280.09
2018-04-01T19:10:39.303Z,99281.23
2018-04-01T19:13:07.185Z,99284.48
2018-04-01T19:15:35.071Z,99279.08
2018-04-01T19:18:03.508Z,99285.44
2018-04-01T19:20:31.929Z,99289.01
2018-04-01T19:23:00.367Z,99290.75
2018-04-01T19:25:28.787Z,99293.70
2018-04-01T19:27:57.229Z,99294.61
2018-04-01T19:30:25.704Z,99297.41
2018-04-01T19:32:54.127Z,99297.13
2018-04-01T19:35:22.565Z,99292.56
2018-04-01T19:37:51.830Z,99300.16
2018-04-01T19:40:20.312Z,99299.84
2018-04-01T19:42:48.729Z,99300.36
2018-04-01T19:45:17.143Z,99302.92
2018-04-01T19:47:45.610Z,99306.31
2018-04-01T19:50:14.029Z,99308.41
2018-04-01T19:52:42.520Z,99308.05
2018-04-01T19:55:11.001Z,99305.62
2018-04-01T19:57:39.425Z,99305.70
2018-04-01T20:00:07.857Z,99307.26
2018-04-01T20:02:36.292Z,99313.95
2018-04-01T20:05:04.720Z,99312.64
2018-04-01T20:07:33.162Z,99309.20
2018-04-01T20:10:01.588Z,99319.20
2018-04-01T20:12:30.070Z,99312.53
2018-04-01T20:14:58.500Z,99315.89
2018-04-01T20:17:26.924Z,99313.77
2018-04-01T20:19:55.366Z,99319.61
2018-04-01T20:22:23.830Z,99326.87
2018-04-01T20:24:52.261Z,99325.25
2018-04-01T20:27:21.159Z,99322.79
2018-04-01T20:29:49.657Z,99326.61
2018-04-01T20:32:18.092Z,99322.84
2018-04-01T20:34:46.507Z,99340.03
2018-04-01T20:37:14.978Z,99334.98
2018-04-01T20:39:43.582Z,99332.06
2018-04-01T20:42:12.030Z,99347.55
2018-04-01T20:44:40.464Z,99343.91
2018-04-01T20:47:08.880Z,99341.44
2018-04-01T20:49:37.299Z,99339.08
2018-04-01T20:52:05.750Z,99343.72
2018-04-01T20:54:34.225Z,99359.32
2018-04-01T20:57:02.653Z,99356.05
2018-04-01T20:59:31.105Z,99352.78
2018-04-01T21:01:59.541Z,99354.98
2018-04-01T21:04:28.331Z,99361.27
2018-04-01T21:06:56.795Z,99364.70
2018-04-01T21:09:25.226Z,99363.56
2018-04-01T21:11:53.672Z,99370.70
2018-04-01T21:14:22.080Z,99372.44
2018-04-01T21:16:50.721Z,99372.50
2018-04-01T21:19:19.141Z,99374.62
2018-04-01T21:21:47.562Z,99378.92
2018-04-01T21:24:15.980Z,99386.03
2018-04-01T21:26:44.436Z,99389.80
2018-04-01T21:29:12.851Z,99392.36
2018-04-01T21:31:41.267Z,99397.33
2018-04-01T21:34:09.699Z,99389.13
2018-04-01T21:36:38.126Z,99388.73
2018-04-01T21:39:06.564Z,99387.56
2018-04-01T21:41:35.003Z,99390.50
2018-04-01T21:44:03.449Z,99390.48
2018-04-01T21:46:31.869Z,99392.06
2018-04-01T21:49:00.331Z,99399.30
2018-04-01T21:54:03.364Z,99398.17
2018-04-01T21:56:31.864Z,99400.30
2018-04-01T21:59:00.330Z,99398.13
2018-04-01T22:01:28.724Z,99402.33
2018-04-01T22:03:57.149Z,99405.78
2018-04-01T22:06:25.565Z,99402.86
2018-04-01T22:08:53.992Z,99407.94
2018-04-01T22:11:22.430Z,99401.67
2018-04-01T22:13:50.852Z,99408.35
2018-04-01T22:16:19.293Z,99408.73
2018-04-01T22:18:47.715Z,99411.27
2018-04-01T22:21:16.143Z,99413.86
2018-04-01T22:23:44.564Z,99414.23
2018-04-01T22:26:12.996Z,99413.47
2018-04-01T22:28:41.427Z,99413.03
2018-04-01T22:31:09.855Z,99415.95
2018-04-01T22:33:38.276Z,99414.31
2018-04-01T22:36:06.705Z,99418.92
2018-04-01T22:38:35.130Z,99427.72
2018-04-01T22:41:03.581Z,99431.05
2018-04-01T22:43:32.014Z,99431.48
2018-04-01T22:46:00.455Z,99441.11
2018-04-01T22:48:28.875Z,99437.77
2018-04-01T22:50:57.310Z,99453.19
2018-04-01T22:53:25.739Z,99450.24
2018-04-01T22:55:54.210Z,99448.19
2018-04-01T22:58:22.732Z,99456.52
2018-04-01T23:00:51.145Z,99466.55
2018-04-01T23:03:20.055Z,99463.67
2018-04-01T23:05:48.476Z,99459.48
2018-04-01T23:08:16.918Z,99472.48
2018-04-01T23:10:45.336Z,99460.89
2018-04-01T23:13:14.618Z,99464.19
2018-04-01T23:15:43.028Z,99459.59
2018-04-01T23:18:11.447Z,99468.36
2018-04-01T23:20:39.911Z,99462.56
2018-04-01T23:23:08.333Z,99476.84
2018-04-01T23:25:36.743Z,99459.23
2018-04-01T23:28:05.156Z,99473.92
2018-04-01T23:30:33.647Z,99465.61
2018-04-01T23:33:02.065Z,99479.00
2018-04-01T23:35:30.485Z,99477.41
2018-04-01T23:37:58.904Z,99496.68
2018-04-01T23:40:27.308Z,99489.17
2018-04-01T23:42:56.356Z,99479.94
2018-04-01T23:45:24.797Z,99486.21
2018-04-01T23:47:53.291Z,99490.00
2018-04-01T23:50:21.704Z,99497.64
2018-04-01T23:52:50.124Z,99492.32
2018-04-01T23:55:18.536Z,99481.05
2018-04-01T23:57:46.950Z,99495.33
